Time;durP1;ratioP1;P1;durP2;ratioP2;P2;SDS_P1;SDS_P2;PMS_P1;PMS_P2;Temp;Humidity;BMP_temperature;BMP_pressure;BME280_temperature;BME280_humidity;BME280_pressure;Samples;Min_cycle;Max_cycle;Signal;HPM_P1;HPM_P2
2022/03/11 00:00:00;;;;;;;;;;;8.60;99.90;;;;;;5054070;28;20327;-78
2022/03/11 00:02:25;;;;;;;;;;;8.50;99.90;;;;;;5053807;28;20127;-78
2022/03/11 00:04:51;;;;;;;;;;;8.50;99.90;;;;;;5053883;28;19909;-77
2022/03/11 00:07:17;;;;;;;;;;;8.40;99.90;;;;;;5054286;28;19909;-77
2022/03/11 00:09:42;;;;;;;;;;;8.30;99.90;;;;;;5054020;28;19909;-77
2022/03/11 00:12:09;;;;;;;;;;;8.30;99.90;;;;;;5052500;28;20431;-77
2022/03/11 00:14:35;;;;;;;;;;;8.30;99.90;;;;;;5053904;28;19921;-78
2022/03/11 00:17:02;;;;;;;;;;;8.30;99.90;;;;;;5052348;28;20004;-78
2022/03/11 00:19:27;;;;;;;;;;;8.30;99.90;;;;;;5053650;28;19984;-77
2022/03/11 00:21:55;;;;;;;;;;;8.20;99.90;;;;;;5053745;28;19995;-77
2022/03/11 00:24:21;;;;;;;;;;;8.20;99.90;;;;;;5053521;28;19908;-77
2022/03/11 00:26:47;;;;;;;;;;;8.20;99.90;;;;;;5053640;28;20008;-78
2022/03/11 00:29:12;;;;;;;;;;;8.20;99.90;;;;;;5053527;28;19909;-78
2022/03/11 00:31:38;;;;;;;;;;;8.10;99.90;;;;;;5053616;28;20381;-77
2022/03/11 00:34:03;;;;;;;;;;;8.10;99.90;;;;;;5052255;28;19909;-77
2022/03/11 00:36:29;;;;;;;;;;;8.20;99.90;;;;;;5053511;28;19908;-77
2022/03/11 00:38:54;;;;;;;;;;;8.20;99.90;;;;;;5051778;28;19921;-77
2022/03/11 00:41:20;;;;;;;;;;;8.20;99.90;;;;;;5053484;28;19909;-78
2022/03/11 00:43:46;;;;;;;;;;;8.30;99.90;;;;;;5052123;28;19920;-77
2022/03/11 00:46:11;;;;;;;;;;;8.30;99.90;;;;;;5053662;28;20323;-78
2022/03/11 00:48:37;;;;;;;;;;;8.30;99.90;;;;;;5053147;28;19916;-77
2022/03/11 00:51:03;;;;;;;;;;;8.40;99.90;;;;;;5053591;28;19909;-78
2022/03/11 00:53:28;;;;;;;;;;;8.40;99.90;;;;;;5053304;28;19947;-77
2022/03/11 00:55:54;;;;;;;;;;;8.40;99.90;;;;;;5053352;28;19955;-77
2022/03/11 00:58:20;;;;;;;;;;;8.40;99.90;;;;;;5052073;28;19908;-77
2022/03/11 01:00:46;;;;;;;;;;;8.40;99.90;;;;;;5053498;28;20300;-77
2022/03/11 01:03:11;;;;;;;;;;;8.40;99.90;;;;;;5053467;28;20332;-77
2022/03/11 01:05:37;;;;;;;;;;;8.40;99.90;;;;;;5053400;28;19916;-78
2022/03/11 01:08:02;;;;;;;;;;;8.40;99.90;;;;;;5053244;28;19909;-78
2022/03/11 01:10:28;;;;;;;;;;;8.30;99.90;;;;;;5053396;28;19913;-77
2022/03/11 01:12:54;;;;;;;;;;;8.30;99.90;;;;;;5053487;28;19915;-77
2022/03/11 01:15:19;;;;;;;;;;;8.30;99.90;;;;;;5053183;28;19909;-77
2022/03/11 01:17:45;;;;;;;;;;;8.30;99.90;;;;;;5053106;28;19999;-77
2022/03/11 01:20:11;;;;;;;;;;;8.30;99.90;;;;;;5053527;28;19912;-77
2022/03/11 01:22:37;;;;;;;;;;;8.30;99.90;;;;;;5053206;28;19913;-78
2022/03/11 01:25:04;;;;;;;;;;;8.30;99.90;;;;;;5053066;28;20400;-78
2022/03/11 01:27:30;;;;;;;;;;;8.30;99.90;;;;;;5053199;28;19908;-77
2022/03/11 01:29:55;;;;;;;;;;;8.40;99.90;;;;;;5053150;28;19909;-77
2022/03/11 01:32:21;;;;;;;;;;;8.50;99.90;;;;;;5052999;28;19932;-78
2022/03/11 01:34:47;;;;;;;;;;;8.40;99.90;;;;;;5053993;28;19909;-78
2022/03/11 01:37:12;;;;;;;;;;;8.40;99.90;;;;;;5055117;28;19916;-77
2022/03/11 01:39:38;;;;;;;;;;;8.40;99.90;;;;;;5056534;28;19970;-77
2022/03/11 01:42:03;;;;;;;;;;;8.40;99.90;;;;;;5056410;28;19909;-78
2022/03/11 01:44:29;;;;;;;;;;;8.40;99.90;;;;;;5056669;28;20046;-77
2022/03/11 01:46:56;;;;;;;;;;;8.50;99.90;;;;;;5056437;28;20361;-77
2022/03/11 01:49:22;;;;;;;;;;;8.50;99.90;;;;;;5056367;28;19961;-77
2022/03/11 01:51:47;;;;;;;;;;;8.50;99.90;;;;;;5056309;28;19912;-77
2022/03/11 01:54:13;;;;;;;;;;;8.50;99.90;;;;;;5056172;28;19909;-77
2022/03/11 01:56:39;;;;;;;;;;;8.60;99.90;;;;;;5056402;28;19920;-77
2022/03/11 01:59:06;;;;;;;;;;;8.60;99.90;;;;;;5056334;28;20000;-77
2022/03/11 02:01:31;;;;;;;;;;;8.60;99.90;;;;;;5056122;28;20000;-77
2022/03/11 02:03:57;;;;;;;;;;;8.60;99.90;;;;;;5056023;28;20341;-77
2022/03/11 02:06:23;;;;;;;;;;;8.70;99.90;;;;;;5056104;28;19910;-78
2022/03/11 02:08:49;;;;;;;;;;;8.70;99.90;;;;;;5056061;28;19913;-78
2022/03/11 02:11:15;;;;;;;;;;;8.70;99.90;;;;;;5054627;28;19909;-77
2022/03/11 02:13:41;;;;;;;;;;;8.70;99.90;;;;;;5056267;28;19995;-78
2022/03/11 02:16:07;;;;;;;;;;;8.70;99.90;;;;;;5055879;28;19913;-78
2022/03/11 02:18:32;;;;;;;;;;;8.70;99.90;;;;;;5055774;28;19961;-77
2022/03/11 02:20:58;;;;;;;;;;;8.70;99.90;;;;;;5055776;28;19916;-77
2022/03/11 02:23:24;;;;;;;;;;;8.60;99.90;;;;;;5055998;28;20372;-77
2022/03/11 02:25:50;;;;;;;;;;;8.60;99.90;;;;;;5055666;28;19909;-76
2022/03/11 02:28:16;;;;;;;;;;;8.70;99.90;;;;;;5055639;28;19931;-76
2022/03/11 02:30:41;;;;;;;;;;;8.70;99.90;;;;;;5054302;28;19916;-77
2022/03/11 02:33:07;;;;;;;;;;;8.60;99.90;;;;;;5055786;28;20339;-77
2022/03/11 02:35:32;;;;;;;;;;;8.60;99.90;;;;;;5055648;28;19916;-77
2022/03/11 02:37:58;;;;;;;;;;;8.70;99.90;;;;;;5055264;28;19931;-77
2022/03/11 02:40:24;;;;;;;;;;;8.70;99.90;;;;;;5055438;28;19959;-77
2022/03/11 02:42:49;;;;;;;;;;;8.70;99.90;;;;;;5055294;28;19971;-77
2022/03/11 02:45:15;;;;;;;;;;;8.70;99.90;;;;;;5053792;28;19912;-77
2022/03/11 02:47:40;;;;;;;;;;;8.70;99.90;;;;;;5053999;28;20272;-77
2022/03/11 02:50:06;;;;;;;;;;;8.70;99.90;;;;;;5055206;28;19958;-77
2022/03/11 02:52:31;;;;;;;;;;;8.80;99.90;;;;;;5055214;28;19909;-77
2022/03/11 02:54:57;;;;;;;;;;;8.80;99.90;;;;;;5053792;28;20318;-77
2022/03/11 02:57:23;;;;;;;;;;;8.80;99.90;;;;;;5055124;28;19916;-77
2022/03/11 02:59:48;;;;;;;;;;;8.80;99.90;;;;;;5055058;28;19913;-77
2022/03/11 03:02:14;;;;;;;;;;;8.80;99.90;;;;;;5054905;28;19959;-77
2022/03/11 03:04:39;;;;;;;;;;;8.90;99.90;;;;;;5055136;28;19909;-77
2022/03/11 03:07:06;;;;;;;;;;;8.90;99.90;;;;;;5054931;28;19909;-77
2022/03/11 03:09:31;;;;;;;;;;;8.90;99.90;;;;;;5054822;28;19913;-77
2022/03/11 03:11:57;;;;;;;;;;;8.90;99.90;;;;;;5055057;28;19909;-77
2022/03/11 03:14:23;;;;;;;;;;;8.90;99.90;;;;;;5054736;28;20357;-77
2022/03/11 03:16:48;;;;;;;;;;;8.90;99.90;;;;;;5054958;28;19919;-77
2022/03/11 03:19:14;;;;;;;;;;;8.90;99.90;;;;;;5054706;28;20345;-77
2022/03/11 03:21:39;;;;;;;;;;;8.90;99.90;;;;;;5054806;28;19908;-77
2022/03/11 03:24:07;;;;;;;;;;;8.90;99.90;;;;;;5054475;28;20262;-77
2022/03/11 03:26:33;;;;;;;;;;;8.90;99.90;;;;;;5054458;28;19909;-77
2022/03/11 03:28:59;;;;;;;;;;;8.90;99.90;;;;;;5054709;28;19913;-77
2022/03/11 03:31:24;;;;;;;;;;;8.90;99.90;;;;;;5053108;28;19932;-77
2022/03/11 03:33:50;;;;;;;;;;;8.90;99.90;;;;;;5054510;28;19909;-78
2022/03/11 03:36:16;;;;;;;;;;;8.90;99.90;;;;;;5054320;28;19908;-77
2022/03/11 03:38:42;;;;;;;;;;;8.90;99.90;;;;;;5053928;28;19928;-77
2022/03/11 03:41:07;;;;;;;;;;;8.90;99.90;;;;;;5054391;28;20265;-77
2022/03/11 03:43:33;;;;;;;;;;;8.90;99.90;;;;;;5054242;28;19912;-76
2022/03/11 03:45:59;;;;;;;;;;;8.90;99.90;;;;;;5054238;28;19944;-77
2022/03/11 03:48:24;;;;;;;;;;;8.90;99.90;;;;;;5052816;28;19970;-77
2022/03/11 03:50:50;;;;;;;;;;;8.90;99.90;;;;;;5054511;28;19944;-76
2022/03/11 03:53:16;;;;;;;;;;;8.90;99.90;;;;;;5053965;28;19931;-77
2022/03/11 03:55:41;;;;;;;;;;;8.90;99.90;;;;;;5054154;28;19908;-77
2022/03/11 03:58:07;;;;;;;;;;;8.90;99.90;;;;;;5053575;28;20368;-76
2022/03/11 04:00:33;;;;;;;;;;;9.00;99.90;;;;;;5053906;28;19934;-77
2022/03/11 04:02:58;;;;;;;;;;;9.00;99.90;;;;;;5053838;28;19917;-77
2022/03/11 04:05:24;;;;;;;;;;;9.00;99.90;;;;;;5054182;28;19916;-77
2022/03/11 04:07:50;;;;;;;;;;;9.00;99.90;;;;;;5053878;28;19951;-77
2022/03/11 04:10:16;;;;;;;;;;;9.10;99.90;;;;;;5053842;28;19909;-77
2022/03/11 04:12:42;;;;;;;;;;;9.10;99.90;;;;;;5053807;28;20372;-77
2022/03/11 04:15:08;;;;;;;;;;;9.10;99.90;;;;;;5053740;28;19909;-76
2022/03/11 04:17:33;;;;;;;;;;;9.10;99.90;;;;;;5053861;28;19916;-76
2022/03/11 04:20:02;;;;;;;;;;;9.10;99.90;;;;;;5052371;28;20003;-77
2022/03/11 04:22:27;;;;;;;;;;;9.10;99.90;;;;;;5053682;28;19912;-77
2022/03/11 04:24:53;;;;;;;;;;;9.10;99.90;;;;;;5053862;28;19959;-77
2022/03/11 04:27:18;;;;;;;;;;;9.10;99.90;;;;;;5053902;28;19913;-76
2022/03/11 04:29:44;;;;;;;;;;;9.20;99.90;;;;;;5053601;28;19915;-76
2022/03/11 04:32:10;;;;;;;;;;;9.20;99.90;;;;;;5053610;28;19916;-76
2022/03/11 04:34:35;;;;;;;;;;;9.10;99.90;;;;;;5052275;28;20371;-76
2022/03/11 04:37:01;;;;;;;;;;;9.20;99.90;;;;;;5053368;28;19917;-76
2022/03/11 04:39:26;;;;;;;;;;;9.10;99.90;;;;;;5051992;28;20296;-77
2022/03/11 04:41:53;;;;;;;;;;;9.10;99.90;;;;;;5053541;28;19909;-77
2022/03/11 04:44:18;;;;;;;;;;;9.10;99.90;;;;;;5053409;28;19913;-76
2022/03/11 04:46:44;;;;;;;;;;;9.10;99.90;;;;;;5053442;28;19915;-76
2022/03/11 04:49:10;;;;;;;;;;;9.10;99.90;;;;;;5052119;28;20372;-76
2022/03/11 04:51:36;;;;;;;;;;;9.10;99.90;;;;;;5053669;28;19916;-76
2022/03/11 04:54:02;;;;;;;;;;;9.10;99.90;;;;;;5053359;28;20287;-77
2022/03/11 04:56:27;;;;;;;;;;;9.00;99.90;;;;;;5052040;28;20399;-77
2022/03/11 04:58:53;;;;;;;;;;;9.10;99.90;;;;;;5053340;28;19948;-77
2022/03/11 05:01:19;;;;;;;;;;;9.10;99.90;;;;;;5052040;28;19920;-77
2022/03/11 05:03:44;;;;;;;;;;;9.10;99.90;;;;;;5053400;28;19913;-77
2022/03/11 05:06:10;;;;;;;;;;;9.10;99.90;;;;;;5053283;28;19913;-76
2022/03/11 05:08:36;;;;;;;;;;;9.10;99.90;;;;;;5054045;28;20400;-76
2022/03/11 05:11:02;;;;;;;;;;;9.10;99.90;;;;;;5057475;28;19909;-77
2022/03/11 05:13:27;;;;;;;;;;;9.10;99.90;;;;;;5057303;28;20435;-77
2022/03/11 05:15:53;;;;;;;;;;;9.20;99.90;;;;;;5056918;28;19949;-76
2022/03/11 05:18:18;;;;;;;;;;;9.20;99.90;;;;;;5055672;28;19920;-77
2022/03/11 05:20:44;;;;;;;;;;;9.20;99.90;;;;;;5056916;28;19934;-76
2022/03/11 05:23:10;;;;;;;;;;;9.20;99.90;;;;;;5057210;28;19920;-76
2022/03/11 05:25:36;;;;;;;;;;;9.20;99.90;;;;;;5056783;28;20039;-76
2022/03/11 05:28:02;;;;;;;;;;;9.20;99.90;;;;;;5056795;28;19970;-76
2022/03/11 05:30:28;;;;;;;;;;;9.30;99.90;;;;;;5056778;28;20382;-77
2022/03/11 05:32:54;;;;;;;;;;;9.30;99.90;;;;;;5056669;28;19908;-77
2022/03/11 05:35:19;;;;;;;;;;;9.30;99.90;;;;;;5056808;28;19932;-76
2022/03/11 05:37:46;;;;;;;;;;;9.40;99.90;;;;;;5055144;28;20010;-77
2022/03/11 05:40:11;;;;;;;;;;;9.30;99.90;;;;;;5056554;28;20365;-77
2022/03/11 05:42:37;;;;;;;;;;;9.30;99.90;;;;;;5056656;28;20003;-77
2022/03/11 05:45:03;;;;;;;;;;;9.40;99.90;;;;;;5056506;28;20315;-76
2022/03/11 05:47:29;;;;;;;;;;;9.40;99.90;;;;;;5055088;28;20395;-77
2022/03/11 05:49:55;;;;;;;;;;;9.40;99.90;;;;;;5056334;28;19955;-77
2022/03/11 05:52:23;;;;;;;;;;;9.40;99.90;;;;;;5056555;28;19912;-77
2022/03/11 05:54:49;;;;;;;;;;;9.50;99.90;;;;;;5056217;28;19913;-78
2022/03/11 05:57:14;;;;;;;;;;;9.40;99.90;;;;;;5056251;28;19915;-77
2022/03/11 05:59:40;;;;;;;;;;;9.40;99.90;;;;;;5056226;28;20387;-76
2022/03/11 06:02:06;;;;;;;;;;;9.50;99.90;;;;;;5056114;28;19909;-77
2022/03/11 06:04:31;;;;;;;;;;;9.50;99.90;;;;;;5056335;28;19909;-76
2022/03/11 06:06:57;;;;;;;;;;;9.50;99.90;;;;;;5056013;28;19909;-76
2022/03/11 06:09:22;;;;;;;;;;;9.50;99.90;;;;;;5055963;28;19915;-76
2022/03/11 06:11:48;;;;;;;;;;;9.50;99.90;;;;;;5055941;28;19954;-77
2022/03/11 06:14:14;;;;;;;;;;;9.50;99.90;;;;;;5055900;28;20360;-78
2022/03/11 06:16:39;;;;;;;;;;;9.40;99.90;;;;;;5055881;28;19909;-78
2022/03/11 06:19:05;;;;;;;;;;;9.40;99.90;;;;;;5055855;28;19944;-79
2022/03/11 06:21:30;;;;;;;;;;;9.40;99.90;;;;;;5055225;28;19995;-78
2022/03/11 06:23:57;;;;;;;;;;;9.40;99.90;;;;;;5055740;28;19913;-78
2022/03/11 06:26:23;;;;;;;;;;;9.40;99.90;;;;;;5055732;28;19987;-78
2022/03/11 06:28:49;;;;;;;;;;;9.40;99.90;;;;;;5055925;28;19921;-78
2022/03/11 06:31:14;;;;;;;;;;;9.40;99.90;;;;;;5055964;28;19909;-77
2022/03/11 06:33:40;;;;;;;;;;;9.40;99.90;;;;;;5055561;28;19916;-77
2022/03/11 06:36:06;;;;;;;;;;;9.40;99.90;;;;;;5055594;28;19935;-77
2022/03/11 06:38:32;;;;;;;;;;;9.40;99.90;;;;;;5055242;28;20058;-77
2022/03/11 06:40:57;;;;;;;;;;;9.40;99.90;;;;;;5055399;28;19999;-77
2022/03/11 06:43:23;;;;;;;;;;;9.50;99.90;;;;;;5055327;28;19920;-76
2022/03/11 06:45:49;;;;;;;;;;;9.50;99.90;;;;;;5055387;28;19920;-76
2022/03/11 06:48:18;;;;;;;;;;;9.50;99.90;;;;;;5055386;28;20396;-77
2022/03/11 06:50:44;;;;;;;;;;;9.50;99.90;;;;;;5055149;28;19959;-77
2022/03/11 06:53:09;;;;;;;;;;;9.60;99.90;;;;;;5055258;28;20330;-77
2022/03/11 06:55:35;;;;;;;;;;;9.60;99.90;;;;;;5055093;28;19931;-77
2022/03/11 06:58:00;;;;;;;;;;;9.60;99.90;;;;;;5055052;28;20283;-78
2022/03/11 07:00:26;;;;;;;;;;;9.60;99.90;;;;;;5055196;28;19913;-78
2022/03/11 07:02:52;;;;;;;;;;;9.60;99.90;;;;;;5054751;28;19924;-78
2022/03/11 07:05:18;;;;;;;;;;;9.70;99.90;;;;;;5054909;28;19955;-77
2022/03/11 07:07:43;;;;;;;;;;;9.70;99.90;;;;;;5055197;28;19909;-79
2022/03/11 07:10:12;;;;;;;;;;;9.70;99.90;;;;;;5055131;28;19920;-78
2022/03/11 07:12:38;;;;;;;;;;;9.60;99.90;;;;;;5054832;28;19913;-78
2022/03/11 07:15:05;;;;;;;;;;;9.60;99.90;;;;;;5054843;28;20365;-76
2022/03/11 07:17:31;;;;;;;;;;;9.60;99.90;;;;;;5054681;28;20003;-77
2022/03/11 07:19:57;;;;;;;;;;;9.60;99.90;;;;;;5053334;28;20026;-76
2022/03/11 07:22:23;;;;;;;;;;;9.60;99.90;;;;;;5054671;28;20007;-78
2022/03/11 07:24:48;;;;;;;;;;;9.70;99.90;;;;;;5054667;28;19912;-77
2022/03/11 07:27:14;;;;;;;;;;;9.70;99.90;;;;;;5054958;28;20292;-77
2022/03/11 07:29:40;;;;;;;;;;;9.70;99.90;;;;;;5054536;28;20357;-77
2022/03/11 07:32:06;;;;;;;;;;;9.80;99.90;;;;;;5053605;28;19909;-78
2022/03/11 07:34:31;;;;;;;;;;;9.80;99.90;;;;;;5054373;28;20000;-79
2022/03/11 07:36:57;;;;;;;;;;;9.80;99.90;;;;;;5054562;28;19948;-79
2022/03/11 07:39:22;;;;;;;;;;;9.80;99.90;;;;;;5053330;28;20357;-78
2022/03/11 07:41:49;;;;;;;;;;;9.80;99.90;;;;;;5054250;28;19909;-78
2022/03/11 07:44:15;;;;;;;;;;;9.80;99.90;;;;;;5054153;28;19912;-78
2022/03/11 07:46:42;;;;;;;;;;;9.90;99.90;;;;;;5054209;28;19912;-78
2022/03/11 07:49:07;;;;;;;;;;;9.90;99.90;;;;;;5054153;28;20392;-78
2022/03/11 07:51:33;;;;;;;;;;;9.90;99.90;;;;;;5054336;28;19909;-78
2022/03/11 07:53:59;;;;;;;;;;;9.90;99.90;;;;;;5053963;28;19912;-79
2022/03/11 07:56:24;;;;;;;;;;;9.90;99.90;;;;;;5054162;28;19913;-78
2022/03/11 07:58:50;;;;;;;;;;;9.90;99.90;;;;;;5053974;28;19909;-79
2022/03/11 08:01:16;;;;;;;;;;;10.00;99.90;;;;;;5054025;28;20369;-76
2022/03/11 08:03:42;;;;;;;;;;;10.00;99.90;;;;;;5053905;28;19963;-79
2022/03/11 08:06:08;;;;;;;;;;;10.00;99.90;;;;;;5053978;28;19959;-78
2022/03/11 08:08:37;;;;;;;;;;;10.00;99.90;;;;;;5053860;28;19915;-79
2022/03/11 08:11:03;;;;;;;;;;;10.00;99.90;;;;;;5053789;28;19909;-78
2022/03/11 08:13:29;;;;;;;;;;;10.00;99.90;;;;;;5052481;28;20315;-77
2022/03/11 08:15:55;;;;;;;;;;;10.10;99.90;;;;;;5054086;28;19916;-78
2022/03/11 08:18:20;;;;;;;;;;;10.10;99.90;;;;;;5053782;28;19999;-79
2022/03/11 08:20:46;;;;;;;;;;;10.20;99.90;;;;;;5053722;28;20372;-78
2022/03/11 08:23:12;;;;;;;;;;;10.20;99.90;;;;;;5053578;28;19938;-77
2022/03/11 08:25:38;;;;;;;;;;;10.30;99.90;;;;;;5053719;28;20376;-77
2022/03/11 08:28:05;;;;;;;;;;;10.30;99.90;;;;;;5052273;28;19909;-79
2022/03/11 08:30:31;;;;;;;;;;;10.40;99.90;;;;;;5053582;28;20399;-77
2022/03/11 08:32:58;;;;;;;;;;;10.50;99.90;;;;;;5053578;28;19909;-78
2022/03/11 08:35:24;;;;;;;;;;;10.40;99.90;;;;;;5053557;28;20443;-78
2022/03/11 08:37:50;;;;;;;;;;;10.50;99.90;;;;;;5053289;28;19963;-77
2022/03/11 08:40:17;;;;;;;;;;;10.50;99.90;;;;;;5053518;28;20369;-77
2022/03/11 08:42:42;;;;;;;;;;;10.50;99.90;;;;;;5053398;28;19913;-77
2022/03/11 08:45:10;;;;;;;;;;;10.50;99.90;;;;;;5056943;28;20422;-77
2022/03/11 08:47:35;;;;;;;;;;;10.40;99.90;;;;;;5057542;28;19962;-77
2022/03/11 08:50:04;;;;;;;;;;;10.40;99.90;;;;;;5057842;28;19909;-77
2022/03/11 08:52:30;;;;;;;;;;;10.40;99.90;;;;;;5057439;28;19913;-78
2022/03/11 08:54:56;;;;;;;;;;;10.40;99.90;;;;;;5057336;28;20292;-78
2022/03/11 08:57:21;;;;;;;;;;;10.40;99.90;;;;;;5057367;28;19909;-78
2022/03/11 08:59:47;;;;;;;;;;;10.40;99.90;;;;;;5057403;28;19995;-77
2022/03/11 09:02:15;;;;;;;;;;;10.40;99.90;;;;;;5057221;28;19916;-76
2022/03/11 09:04:41;;;;;;;;;;;10.40;99.90;;;;;;5057202;28;19954;-78
2022/03/11 09:07:07;;;;;;;;;;;10.40;99.90;;;;;;5057386;28;19971;-78
2022/03/11 09:09:32;;;;;;;;;;;10.40;99.90;;;;;;5057167;28;20399;-78
2022/03/11 09:11:58;;;;;;;;;;;10.40;99.90;;;;;;5057161;28;19909;-79
2022/03/11 09:14:24;;;;;;;;;;;10.50;99.90;;;;;;5057027;28;20442;-77
2022/03/11 09:16:50;;;;;;;;;;;10.60;99.90;;;;;;5055704;28;19916;-78
2022/03/11 09:19:16;;;;;;;;;;;10.60;99.90;;;;;;5057031;28;19916;-78
2022/03/11 09:21:41;;;;;;;;;;;10.70;99.90;;;;;;5057011;28;19908;-78
2022/03/11 09:24:07;;;;;;;;;;;10.80;99.90;;;;;;5056868;28;19913;-76
2022/03/11 09:26:33;;;;;;;;;;;10.90;99.90;;;;;;5057070;28;19913;-78
2022/03/11 09:28:59;;;;;;;;;;;11.00;99.90;;;;;;5057145;28;19917;-78
2022/03/11 09:31:24;;;;;;;;;;;11.10;99.90;;;;;;5056862;28;19909;-77
2022/03/11 09:33:50;;;;;;;;;;;11.10;99.90;;;;;;5056727;28;19936;-76
2022/03/11 09:36:16;;;;;;;;;;;11.20;99.90;;;;;;5056609;28;19909;-76
2022/03/11 09:38:41;;;;;;;;;;;11.30;99.90;;;;;;5056233;28;19928;-77
2022/03/11 09:41:08;;;;;;;;;;;11.40;99.90;;;;;;5056573;28;19908;-77
2022/03/11 09:43:35;;;;;;;;;;;11.60;99.90;;;;;;5056554;28;19913;-77
2022/03/11 09:46:00;;;;;;;;;;;11.50;99.90;;;;;;5056601;28;19915;-76
2022/03/11 09:48:26;;;;;;;;;;;11.30;99.90;;;;;;5056472;28;19913;-76
2022/03/11 09:50:52;;;;;;;;;;;11.30;99.90;;;;;;5055093;28;19964;-77
2022/03/11 09:53:18;;;;;;;;;;;11.30;99.90;;;;;;5056319;28;19959;-76
2022/03/11 09:55:43;;;;;;;;;;;11.20;99.90;;;;;;5055267;28;19959;-77
2022/03/11 09:58:09;;;;;;;;;;;11.10;99.90;;;;;;5056254;28;20323;-76
2022/03/11 10:00:35;;;;;;;;;;;11.10;99.90;;;;;;5056589;28;19909;-76
2022/03/11 10:03:00;;;;;;;;;;;11.20;99.90;;;;;;5056107;28;20283;-76
2022/03/11 10:05:46;;;;;;;;;;;11.30;99.90;;;;;;5056144;28;19966;-75
2022/03/11 10:08:11;;;;;;;;;;;11.20;99.90;;;;;;5056526;28;19931;-77
2022/03/11 10:10:37;;;;;;;;;;;11.20;99.90;;;;;;5056198;28;20431;-75
2022/03/11 10:13:03;;;;;;;;;;;11.20;99.90;;;;;;5056005;28;19935;-78
2022/03/11 10:15:29;;;;;;;;;;;11.10;99.90;;;;;;5056029;28;20391;-75
2022/03/11 10:17:55;;;;;;;;;;;11.00;99.90;;;;;;5055939;28;20334;-77
2022/03/11 10:20:20;;;;;;;;;;;10.90;99.90;;;;;;5056104;28;19909;-76
2022/03/11 10:22:46;;;;;;;;;;;10.90;99.90;;;;;;5055957;28;19924;-78
2022/03/11 10:25:16;;;;;;;;;;;10.90;99.90;;;;;;5055784;28;19909;-75
2022/03/11 10:27:54;;;;;;;;;;;10.80;99.90;;;;;;5055676;28;19913;-78
2022/03/11 10:30:20;;;;;;;;;;;10.80;99.90;;;;;;5055648;28;19909;-77
2022/03/11 10:32:50;;;;;;;;;;;10.70;99.90;;;;;;5055823;28;19909;-76
2022/03/11 10:35:18;;;;;;;;;;;10.70;99.90;;;;;;5054275;28;20352;-76
2022/03/11 10:37:57;;;;;;;;;;;10.70;99.90;;;;;;5055305;28;19956;-77
2022/03/11 10:40:22;;;;;;;;;;;10.70;99.90;;;;;;5055870;28;19944;-76
2022/03/11 10:42:48;;;;;;;;;;;10.70;99.90;;;;;;5055709;28;20431;-77
2022/03/11 10:45:13;;;;;;;;;;;10.70;99.90;;;;;;5055349;28;19915;-75
2022/03/11 10:47:40;;;;;;;;;;;10.60;99.90;;;;;;5055486;28;19967;-77
2022/03/11 10:50:06;;;;;;;;;;;10.70;99.90;;;;;;5055221;28;19909;-76
2022/03/11 10:52:32;;;;;;;;;;;11.10;99.90;;;;;;5055658;28;19909;-77
2022/03/11 10:54:58;;;;;;;;;;;11.60;99.90;;;;;;5055184;28;20315;-76
2022/03/11 10:57:34;;;;;;;;;;;12.10;99.90;;;;;;5055424;28;19932;-77
2022/03/11 11:00:29;;;;;;;;;;;12.70;99.90;;;;;;5055386;28;19912;-77
2022/03/11 11:02:55;;;;;;;;;;;13.60;99.90;;;;;;5045850;28;19913;-77
2022/03/11 11:05:21;;;;;;;;;;;16.20;99.90;;;;;;5055011;28;19916;-79
2022/03/11 11:07:47;;;;;;;;;;;17.60;99.90;;;;;;5054856;28;19917;-77
2022/03/11 11:10:14;;;;;;;;;;;20.00;99.90;;;;;;5054872;28;19913;-78
2022/03/11 11:12:40;;;;;;;;;;;20.20;99.90;;;;;;5055277;28;19913;-76
2022/03/11 11:15:07;;;;;;;;;;;19.50;99.90;;;;;;5054753;28;19913;-76
2022/03/11 11:17:36;;;;;;;;;;;19.40;99.90;;;;;;5054740;28;19908;-78
2022/03/11 11:20:02;;;;;;;;;;;20.50;99.90;;;;;;5054776;28;19916;-77
2022/03/11 11:22:29;;;;;;;;;;;18.50;99.90;;;;;;5054558;28;19932;-76
2022/03/11 11:24:55;;;;;;;;;;;15.70;99.90;;;;;;5054657;28;19909;-76
2022/03/11 11:27:21;;;;;;;;;;;14.80;99.90;;;;;;5054681;28;20000;-76
2022/03/11 11:29:50;;;;;;;;;;;14.60;99.90;;;;;;5054587;28;19913;-76
2022/03/11 11:32:19;;;;;;;;;;;16.90;99.90;;;;;;5053236;28;19909;-77
2022/03/11 11:34:44;;;;;;;;;;;15.50;99.90;;;;;;5054558;28;19932;-77
2022/03/11 11:37:30;;;;;;;;;;;14.00;99.90;;;;;;5054217;28;20369;-75
2022/03/11 11:39:56;;;;;;;;;;;13.40;99.90;;;;;;5046709;28;20265;-76
2022/03/11 11:42:22;;;;;;;;;;;13.40;99.90;;;;;;5054220;28;19916;-76
2022/03/11 11:44:48;;;;;;;;;;;14.60;99.90;;;;;;5054610;28;19915;-76
2022/03/11 11:47:17;;;;;;;;;;;14.90;99.90;;;;;;5054220;28;19915;-77
2022/03/11 11:49:47;;;;;;;;;;;17.80;99.90;;;;;;5054275;28;19944;-77
2022/03/11 11:52:26;;;;;;;;;;;20.20;99.90;;;;;;5054156;28;19916;-77
2022/03/11 11:54:51;;;;;;;;;;;21.40;99.90;;;;;;5054000;28;19909;-78
2022/03/11 11:57:18;;;;;;;;;;;22.70;99.90;;;;;;5054053;28;19936;-78
2022/03/11 11:59:43;;;;;;;;;;;23.40;97.40;;;;;;5054024;28;19909;-77
2022/03/11 12:02:25;;;;;;;;;;;23.80;98.30;;;;;;5053983;28;19955;-77
2022/03/11 12:04:51;;;;;;;;;;;23.20;93.40;;;;;;5054284;28;19913;-77
2022/03/11 12:07:17;;;;;;;;;;;21.00;96.30;;;;;;5054200;28;19915;-77
2022/03/11 12:09:46;;;;;;;;;;;17.90;99.90;;;;;;5053872;28;19909;-77
2022/03/11 12:12:21;;;;;;;;;;;15.50;99.90;;;;;;5053881;28;20364;-76
2022/03/11 12:14:58;;;;;;;;;;;14.60;99.90;;;;;;5053874;28;19917;-76
2022/03/11 12:17:43;;;;;;;;;;;13.80;99.90;;;;;;5052451;28;20364;-76
2022/03/11 12:20:27;;;;;;;;;;;13.70;99.90;;;;;;5053365;28;19908;-77
2022/03/11 12:22:54;;;;;;;;;;;13.80;99.90;;;;;;5053652;28;19913;-77
2022/03/11 12:25:24;;;;;;;;;;;16.20;99.90;;;;;;5052427;28;19919;-77
2022/03/11 12:28:08;;;;;;;;;;;14.80;99.90;;;;;;5053596;28;19920;-77
2022/03/11 12:30:38;;;;;;;;;;;13.50;99.90;;;;;;5053627;28;19910;-76
2022/03/11 12:33:05;;;;;;;;;;;13.40;99.90;;;;;;5053569;28;19915;-76
2022/03/11 12:35:31;;;;;;;;;;;13.10;99.90;;;;;;5053783;28;20334;-77
2022/03/11 12:37:56;;;;;;;;;;;13.20;99.90;;;;;;5053671;28;19920;-76
2022/03/11 12:40:22;;;;;;;;;;;12.80;99.90;;;;;;5053760;28;19934;-77
2022/03/11 12:42:49;;;;;;;;;;;13.20;99.90;;;;;;5053420;28;19913;-76
2022/03/11 12:45:35;;;;;;;;;;;13.90;99.90;;;;;;5053579;28;20129;-77
2022/03/11 12:48:00;;;;;;;;;;;20.30;99.90;;;;;;5053468;28;20261;-77
2022/03/11 12:50:26;;;;;;;;;;;22.90;96.40;;;;;;5053781;28;19920;-78
2022/03/11 12:52:54;;;;;;;;;;;25.10;91.80;;;;;;5053482;28;19909;-78
2022/03/11 12:55:25;;;;;;;;;;;25.80;82.70;;;;;;5053325;28;20288;-77
2022/03/11 12:57:54;;;;;;;;;;;21.50;89.90;;;;;;5052090;28;20380;-77
2022/03/11 13:00:21;;;;;;;;;;;17.60;97.20;;;;;;5053451;28;19919;-76
2022/03/11 13:02:47;;;;;;;;;;;16.40;99.90;;;;;;5053224;28;19920;-77
2022/03/11 13:05:17;;;;;;;;;;;19.20;99.90;;;;;;5053304;28;19916;-77
2022/03/11 13:07:43;;;;;;;;;;;18.60;99.90;;;;;;5053252;28;19915;-76
2022/03/11 13:10:12;;;;;;;;;;;16.50;99.90;;;;;;5053209;28;19909;-76
2022/03/11 13:12:38;;;;;;;;;;;15.30;99.90;;;;;;5051925;28;19995;-76
2022/03/11 13:15:13;;;;;;;;;;;15.00;99.90;;;;;;5053020;28;19944;-76
2022/03/11 13:17:39;;;;;;;;;;;15.20;99.90;;;;;;5053193;28;19909;-77
2022/03/11 13:20:05;;;;;;;;;;;18.00;99.90;;;;;;5051909;28;19915;-76
2022/03/11 13:22:31;;;;;;;;;;;20.40;95.50;;;;;;5053065;28;19909;-77
2022/03/11 13:25:05;;;;;;;;;;;21.50;90.00;;;;;;5053182;28;19932;-77
2022/03/11 13:27:38;;;;;;;;;;;20.90;88.80;;;;;;5053474;28;19917;-77
2022/03/11 13:30:07;;;;;;;;;;;22.40;87.70;;;;;;5053218;28;20333;-77
2022/03/11 13:32:32;;;;;;;;;;;22.90;82.90;;;;;;5056929;28;19970;-77
2022/03/11 13:34:58;;;;;;;;;;;23.20;78.60;;;;;;5056467;28;20357;-77
2022/03/11 13:37:24;;;;;;;;;;;21.60;79.50;;;;;;5056474;28;20026;-76
2022/03/11 13:40:09;;;;;;;;;;;19.40;87.30;;;;;;5056973;28;19913;-76
2022/03/11 13:42:34;;;;;;;;;;;19.20;90.20;;;;;;5056516;28;19924;-76
2022/03/11 13:45:04;;;;;;;;;;;20.20;89.50;;;;;;5056547;28;19909;-76
2022/03/11 13:47:30;;;;;;;;;;;21.90;84.30;;;;;;5056654;28;19913;-77
2022/03/11 13:50:04;;;;;;;;;;;24.70;79.80;;;;;;5056435;28;19962;-77
2022/03/11 13:52:38;;;;;;;;;;;25.50;73.60;;;;;;5056438;28;19912;-77
2022/03/11 13:55:10;;;;;;;;;;;25.50;70.60;;;;;;5056349;28;19915;-77
2022/03/11 13:57:36;;;;;;;;;;;24.20;72.20;;;;;;5054763;28;19958;-76
2022/03/11 14:00:15;;;;;;;;;;;18.50;81.70;;;;;;5056242;28;19995;-77
2022/03/11 14:02:41;;;;;;;;;;;21.80;81.00;;;;;;5056178;28;19920;-77
2022/03/11 14:05:10;;;;;;;;;;;23.40;74.70;;;;;;5056145;28;19909;-76
2022/03/11 14:07:36;;;;;;;;;;;18.90;82.80;;;;;;5056112;28;19996;-76
2022/03/11 14:10:02;;;;;;;;;;;19.00;87.30;;;;;;5056107;28;20275;-76
2022/03/11 14:12:28;;;;;;;;;;;21.70;80.10;;;;;;5056049;28;20234;-77
2022/03/11 14:15:04;;;;;;;;;;;22.50;74.90;;;;;;5055980;28;20000;-77
2022/03/11 14:17:31;;;;;;;;;;;24.40;71.60;;;;;;5056158;28;19913;-77
2022/03/11 14:19:57;;;;;;;;;;;24.50;68.90;;;;;;5055892;28;20284;-77